NOT weather

Marin County Airport - Gnoss Field
Novato, California, United States

Public forecast

Using degrees Fahrenheit for public forecast. Weather courtesy of forecast.io.

Current aviation weather report (METAR) for Marin County Airport - Gnoss Field

Retrieved 2019/10/23 19:35 UTC (0 seconds ago):

KDVO 231935Z AUTO 11007KT 9SM CLR 28/09 A2998 RMK AO2

Closest aviation forecast (TAF) to Marin County Airport - Gnoss Field

Forecast is more than 12 hours old.

Closest forecast is Napa County Airport, 13.6 nm (25.3 km) ENE. Retrieved 2016/02/08 00:21 UTC (4 years ago):

TAF KAPC 082320Z 0900/0924 09008KT P6SM SKC FM090600 05004KT P6SM SKC FM091900 10008KT P6SM SKC